F/V J. Louis Vincent — FQBL — position and weather

sailwx.info

Track history (hours):
 
Tides and Currents Weather Stations Pressure Air Temp Water Temp Dewpoint Dewpoint Depression Visibility Wind Speed Wind Dir Waves Ship Positions

F/V J. Louis Vincent

Last reported at 2015-Jan-27 17:13 UTC. Time now 2015-Jan-27 23:05 UTC.
Position N 43°24' E 003°42'.

Length 29 m.

Type: Fishing. MMSI: 227146600.

Date/timePositionNaut miles runAvg speedWind from/ knotsBaromVisibWave heightAir tempDewpointWater temp
2015-Jan-27 17:13N 43°24' E 003°42'4 4.1
2015-Jan-27 16:18N 43°20' E 003°44'9 7.9
2015-Jan-27 15:09N 43°12' E 003°47'4 4.3
2015-Jan-27 14:13N 43°08' E 003°47'3 4.4
2015-Jan-27 13:28N 43°05' E 003°49'4 4.4
2015-Jan-27 12:33N 43°01' E 003°51'2 2.3
2015-Jan-27 11:34N 42°58' E 003°51'4 3.5
2015-Jan-27 10:24N 42°60' E 003°56'5 4.5
2015-Jan-27 09:19N 42°59' E 004°03'5 3.8
2015-Jan-27 08:06N 42°58' E 004°09'19 4.1
2015-Jan-27 03:31N 43°09' E 003°48'15 1.4
2015-Jan-26 16:33N 43°24' E 003°42'8 7.7
2015-Jan-26 15:33N 43°19' E 003°50'4 3.6
2015-Jan-26 14:33N 43°15' E 003°50'5 4.4
2015-Jan-26 13:29N 43°11' E 003°51'4 4.4
2015-Jan-26 12:28N 43°07' E 003°54'1 1.1
2015-Jan-26 11:29N 43°06' E 003°56'4 4.3
2015-Jan-26 10:28N 43°05' E 004°01'4 4.4
2015-Jan-26 09:29N 43°02' E 004°05'4 4.4
2015-Jan-26 08:28N 42°58' E 004°09'1 1.1
2015-Jan-26 07:29N 42°59' E 004°08'4 4.4
2015-Jan-26 06:29N 43°01' E 004°03'4 4.3
2015-Jan-26 05:29N 43°05' E 003°60'4 4.4
2015-Jan-26 04:28N 43°08' E 003°55'4 4.5
2015-Jan-26 03:29N 43°11' E 003°51'9 9.1
2015-Jan-26 02:28N 43°19' E 003°45'  
2015-Jan-23 17:33N 43°24' E 003°42'0 0.0
2015-Jan-23 16:21N 43°24' E 003°42'0 0.0
2015-Jan-23 15:29N 43°24' E 003°42'19 4.7
2015-Jan-23 11:21N 43°11' E 004°01'5 4.4
2015-Jan-23 10:09N 43°11' E 004°09'3 4.3
2015-Jan-23 09:31N 43°10' E 004°12'5 4.5
2015-Jan-23 08:23N 43°08' E 004°18'2 2.2
2015-Jan-23 07:31N 43°09' E 004°17'4 4.2
2015-Jan-23 06:32N 43°12' E 004°13'5 4.2
2015-Jan-23 05:27N 43°13' E 004°07'19 1.5
2015-Jan-22 16:31N 43°24' E 003°44'2 1.6
2015-Jan-22 15:22N 43°24' E 003°42'17 7.5
2015-Jan-22 13:05N 43°14' E 004°01'3 4.5
2015-Jan-22 12:27N 43°12' E 004°04'4 3.2
2015-Jan-22 11:11N 43°09' E 004°07'3 4.2
2015-Jan-22 10:27N 43°06' E 004°06'4 4.4
2015-Jan-22 09:33N 43°03' E 004°02'4 4.4
2015-Jan-22 08:33N 42°59' E 003°59'0 0.3
2015-Jan-22 07:28N 42°59' E 003°58'4 4.3
2015-Jan-22 06:31N 43°00' E 003°53'4 4.5
2015-Jan-22 05:33N 43°01' E 003°47'4 4.3
2015-Jan-22 04:33N 43°05' E 003°43'4 4.3
2015-Jan-22 03:32N 43°09' E 003°41'8 8.6
2015-Jan-22 02:33N 43°17' E 003°41'7 0.7
2015-Jan-21 17:13N 43°24' E 003°42'0 0.2
2015-Jan-21 16:33N 43°24' E 003°42'2 1.5
2015-Jan-21 15:33N 43°24' E 003°44'38 9.1
2015-Jan-21 11:25N 43°03' E 004°28'4 4.4
2015-Jan-21 10:33N 43°03' E 004°33'4 4.4
2015-Jan-21 09:33N 43°02' E 004°39'1 0.7
2015-Jan-21 08:24N 43°03' E 004°38'4 4.3
2015-Jan-21 07:27N 43°03' E 004°33'5 4.4
2015-Jan-21 06:18N 43°04' E 004°26'38 2.7
2015-Jan-20 16:34N 43°24' E 003°42'0 0.4
2015-Jan-20 15:33N 43°24' E 003°42'34 7.9
2015-Jan-20 11:19N 43°05' E 004°20'4 4.0
2015-Jan-20 10:17N 43°03' E 004°25'2 2.5
2015-Jan-20 09:33N 43°02' E 004°27'6 4.4
2015-Jan-20 08:11N 42°56' E 004°27'2 2.1
2015-Jan-20 07:21N 42°58' E 004°27'42 3.0
2015-Jan-19 17:09N 43°24' E 003°42'0 0.0
2015-Jan-19 16:34N 43°24' E 003°42'3 2.3
2015-Jan-19 15:09N 43°23' E 003°46'2810.7
2015-Jan-19 12:32N 43°03' E 004°14'5 4.5
2015-Jan-19 11:32N 43°03' E 004°20'5 4.7
2015-Jan-19 10:29N 43°03' E 004°27'4 3.7
2015-Jan-19 09:18N 43°01' E 004°32'6 3.3
2015-Jan-19 07:27N 43°01' E 004°24'8 6.6
2015-Jan-19 06:17N 43°02' E 004°13'  
Track history (hours):
 
Tides and Currents Weather Stations Pressure Air Temp Water Temp Dewpoint Dewpoint Depression Visibility Wind Speed Wind Dir Waves Ship Positions

F/V J. Louis Vincent

Last reported at 2015-Jan-27 17:13 UTC. Time now 2015-Jan-27 23:05 UTC.
Position N 43°24' E 003°42'.

Length 29 m.

Type: Fishing. MMSI: 227146600.

Date/timePositionNaut miles runAvg speedWind from/ knotsBaromVisibWave heightAir tempDewpointWater temp
2015-Jan-27 17:13N 43°24' E 003°42'4 4.1
2015-Jan-27 16:18N 43°20' E 003°44'9 7.9
2015-Jan-27 15:09N 43°12' E 003°47'4 4.3
2015-Jan-27 14:13N 43°08' E 003°47'3 4.4
2015-Jan-27 13:28N 43°05' E 003°49'4 4.4
2015-Jan-27 12:33N 43°01' E 003°51'2 2.3
2015-Jan-27 11:34N 42°58' E 003°51'4 3.5
2015-Jan-27 10:24N 42°60' E 003°56'5 4.5
2015-Jan-27 09:19N 42°59' E 004°03'5 3.8
2015-Jan-27 08:06N 42°58' E 004°09'19 4.1
2015-Jan-27 03:31N 43°09' E 003°48'15 1.4
2015-Jan-26 16:33N 43°24' E 003°42'8 7.7
2015-Jan-26 15:33N 43°19' E 003°50'4 3.6
2015-Jan-26 14:33N 43°15' E 003°50'5 4.4
2015-Jan-26 13:29N 43°11' E 003°51'4 4.4
2015-Jan-26 12:28N 43°07' E 003°54'1 1.1
2015-Jan-26 11:29N 43°06' E 003°56'4 4.3
2015-Jan-26 10:28N 43°05' E 004°01'4 4.4
2015-Jan-26 09:29N 43°02' E 004°05'4 4.4
2015-Jan-26 08:28N 42°58' E 004°09'1 1.1
2015-Jan-26 07:29N 42°59' E 004°08'4 4.4
2015-Jan-26 06:29N 43°01' E 004°03'4 4.3
2015-Jan-26 05:29N 43°05' E 003°60'4 4.4
2015-Jan-26 04:28N 43°08' E 003°55'4 4.5
2015-Jan-26 03:29N 43°11' E 003°51'9 9.1
2015-Jan-26 02:28N 43°19' E 003°45'  
2015-Jan-23 17:33N 43°24' E 003°42'0 0.0
2015-Jan-23 16:21N 43°24' E 003°42'0 0.0
2015-Jan-23 15:29N 43°24' E 003°42'19 4.7
2015-Jan-23 11:21N 43°11' E 004°01'5 4.4
2015-Jan-23 10:09N 43°11' E 004°09'3 4.3
2015-Jan-23 09:31N 43°10' E 004°12'5 4.5
2015-Jan-23 08:23N 43°08' E 004°18'2 2.2
2015-Jan-23 07:31N 43°09' E 004°17'4 4.2
2015-Jan-23 06:32N 43°12' E 004°13'5 4.2
2015-Jan-23 05:27N 43°13' E 004°07'19 1.5
2015-Jan-22 16:31N 43°24' E 003°44'2 1.6
2015-Jan-22 15:22N 43°24' E 003°42'17 7.5
2015-Jan-22 13:05N 43°14' E 004°01'3 4.5
2015-Jan-22 12:27N 43°12' E 004°04'4 3.2
2015-Jan-22 11:11N 43°09' E 004°07'3 4.2
2015-Jan-22 10:27N 43°06' E 004°06'4 4.4
2015-Jan-22 09:33N 43°03' E 004°02'4 4.4
2015-Jan-22 08:33N 42°59' E 003°59'0 0.3
2015-Jan-22 07:28N 42°59' E 003°58'4 4.3
2015-Jan-22 06:31N 43°00' E 003°53'4 4.5
2015-Jan-22 05:33N 43°01' E 003°47'4 4.3
2015-Jan-22 04:33N 43°05' E 003°43'4 4.3
2015-Jan-22 03:32N 43°09' E 003°41'8 8.6
2015-Jan-22 02:33N 43°17' E 003°41'7 0.7
2015-Jan-21 17:13N 43°24' E 003°42'0 0.2
2015-Jan-21 16:33N 43°24' E 003°42'2 1.5
2015-Jan-21 15:33N 43°24' E 003°44'38 9.1
2015-Jan-21 11:25N 43°03' E 004°28'4 4.4
2015-Jan-21 10:33N 43°03' E 004°33'4 4.4
2015-Jan-21 09:33N 43°02' E 004°39'1 0.7
2015-Jan-21 08:24N 43°03' E 004°38'4 4.3
2015-Jan-21 07:27N 43°03' E 004°33'5 4.4
2015-Jan-21 06:18N 43°04' E 004°26'38 2.7
2015-Jan-20 16:34N 43°24' E 003°42'0 0.4
2015-Jan-20 15:33N 43°24' E 003°42'34 7.9
2015-Jan-20 11:19N 43°05' E 004°20'4 4.0
2015-Jan-20 10:17N 43°03' E 004°25'2 2.5
2015-Jan-20 09:33N 43°02' E 004°27'6 4.4
2015-Jan-20 08:11N 42°56' E 004°27'2 2.1
2015-Jan-20 07:21N 42°58' E 004°27'42 3.0
2015-Jan-19 17:09N 43°24' E 003°42'0 0.0
2015-Jan-19 16:34N 43°24' E 003°42'3 2.3
2015-Jan-19 15:09N 43°23' E 003°46'2810.7
2015-Jan-19 12:32N 43°03' E 004°14'5 4.5
2015-Jan-19 11:32N 43°03' E 004°20'5 4.7
2015-Jan-19 10:29N 43°03' E 004°27'4 3.7
2015-Jan-19 09:18N 43°01' E 004°32'6 3.3
2015-Jan-19 07:27N 43°01' E 004°24'8 6.6
2015-Jan-19 06:17N 43°02' E 004°13'  

Dump ship's entire track history